[source: ADDS]
METAR
EDVE 231820Z VRB03KT CAVOK 25/07 Q1024

TAF EDVE 231700Z 2318/2321 05003KT CAVOK EDDV 231850Z 02006KT CAVOK 22/11 Q1024 NOSIG

TAF EDDV 231700Z 2318/2418 04004KT CAVOK BECMG 2406/2408 10009KT BECMG 2416/2418 09004KT ETHS 231820Z 04006KT 9999 BKN350 23/10 Q1024 BLU+

ETHC 231820Z AUTO 35004KT 9999 // ////// 24/10 Q1024 ///

TAF COR ETHC 230950Z 2308/2317 25005KT 9999 NSW SCT300 CANCEL 1020 EDVK 231850Z VRB02KT CAVOK 22/09 Q1024

TAF EDVK 231700Z 2318/2403 06005KT CAVOK BECMG 2318/2321 VRB03KT
TAF
TAF EDVE 231700Z 2318/2321 05003KT CAVOK

TAF EDDV 231700Z 2318/2418 04004KT CAVOK BECMG 2406/2408 10009KT BECMG 2416/2418 09004KT

TAF COR ETHC 230950Z 2308/2317 25005KT 9999 NSW SCT300 CANCEL 1020

TAF EDVK 231700Z 2318/2403 06005KT CAVOK BECMG 2318/2321 VRB03KT

SR / SS: 04:13 / 18:26 UTC (EDVE 2019-08-23)
Herzlich Wilkommen bei der FFG Carsten! +++ Hallo Peter, willkommen im Verein und viel Spaß bei der Ausbildung! +++ Falk hat sich freigeflogen! Gratulation und weiterhin Happy Landings! +++ Herzlich Willkommen im Verein Christoph und viel Erfolg für deine weitere Ausbildung! +++ Und wieder ein neue Pilot. Wir beglückwünschen Max zur erfolgreichen PPL-Prüfung und wünschen Always Happy Landings! +++ Tibor hat die PPL-Prüfung bestanden. Gratulation und Always Happy Landings! +++ Mathias und Stefan haben die theoretische Prüfung bestanden! Herzlichen Glückwunsch und weiterhin viel Erfolg für die restliche Ausbildung! +++ Herzlich Willkommen in der FFG Jan! +++ Miro hat seine Praktische Prüfung bestanden! Herzlichen Glückwunsch und Always Happy Landings! +++ Stefan hat sich freigeflogen. Herzlichen Glückwunsch und weiterhin always happy landings! +++ David und Christian haben die Nachtflugberechtigung erhalten. Herzlichen Glückwunsch und viel Spaß beim Erleben der Faszination "Nachtflug"!

 

Das Prinzip des Heizgerätes zum Vorheizen unserer Flugzeuge ist einfach: Ein Gasbrenner erhitzt Luft und bläst sie in eine Blechkiste. Dort beschleunigt ein großer Lüfter die Luft und drückt sie durch Luftschläuche in den Motorraum eines Flugzeuges. Nach etwa 20-30 Minuten Vorheizzeit ist eine ausreichende Temperatur zum Motorstart vorhanden.

Weiterlesen ...

Auch im Winter stehen unsere Flugzeuge sicher untergebracht in unserer Halle. Schneelast- und sturmwinderprobt ist sie bereits und hat diese Wettereinflüsse prima überstanden. Im Winter sind bei Schnee und Eis ein paar Erfahrungswerte nützlich:

Weiterlesen ...

Die Halle erlaubt eine einfache Aufstellung der Luftfahrzeuge. Jedem Flugzeug ist ein fester Platz zugewiesen der es erlaubt, mit geringem Aufwand das gewünschte Flugzeug nach vorne zu holen. Ziel bei der gewählten Aufstellung ist es,

Weiterlesen ...

Das Tor der Halle ist ein sogenanntes Planentor, es funktioniert ungefähr so wie ein Duschvorhang. Die linke und die rechte Hälfte des Tores waren in der Mitte durch sechs Gurte verbunden (drei an der Innenseite, drei an der Außenseite), wenn das Tor geschlossen ist.

Der obere Gurt (innen und außen) ist für normal große Leute

Weiterlesen ...

Die installierte elektrische Anlage ist wartungsfrei. Das Licht wird automatisch, durch Bewegungssensoren gesteuert, ein- und ausgeschaltet.

Weiterlesen ...

Letztes NOTAM EDVE
von 26.08.2019 2000Z bis 30.08.2019 0500Z
DAILY 2000-0500
RWY 08/26 CLSD DUE TO WIP.

Letztes NOTAM EDCB
von 30.08.2019 0800Z bis 01.09.2019 1600Z
DAILY 0800-1600
SPECIAL ACTIVITY AREA ESTABLISHED FOR AEROBATICS AT BALLENSTEDT, 2NM RADIUS CENTERED ON 514447N 0111352E.
GND- [more]


Letztes NOTAM EDBC
von 05.08.2019 0729Z bis 05.11.2019 0800Z
COCHSTEDT DME COD 113.35/CH80Y OUT OF SERVICE.

Letztes NOTAM EDVM
von 19.08.2019 1700Z bis 24.08.2019 1900Z
DAILY 0400-0700, 1700-1900
PJE VMC 3NM RADIUS CENTERED ON PSN 521047N 0095644E, HILDESHEIM AIRFIELD.
GND- FL080

Letztes NOTAM EDOV
von 12.08.2019 0349Z bis 30.08.2019 1807Z
DAILY SR-SS
GLIDER TEST FLIGHT ACTIVITIES AND GLIDER TRAFFIC WITHIN 10NM RADIUS CENTERED ON STENDAL-BORSTEL.
GND- FL095

Letztes NOTAM EDVI
von 20.09.2019 1700Z bis 22.09.2019 2359Z
ASPHALT RWY 13/31 CLSD DUE TO EVENT. GRASS STRIP AVBL WITH PPR.

Letztes NOTAM EDDV
von 20.08.2019 1223Z bis 18.11.2019 2359Z
ILS RWY 09R: DOWNGRADED TO CAT I, RELIABILITY NOT DEMONSTRATED, NOT USEABLE FOR AUTOLAND (ICAO CLASSIFICATION I/A/1).

Letztes NOTAM EDVK
von 23.08.2019 0700Z bis 25.08.2019 2200Z
HELIPORT IN SOUTH AREA CLSD, DUE TO PUBLIC EVENT.

          aerodata150     Radio38